createdAt,value
2018-02-09T00:00:36.508Z,72.30
2018-02-09T00:03:03.957Z,72.10
2018-02-09T00:05:31.426Z,72.10
2018-02-09T00:07:58.890Z,71.90
2018-02-09T00:10:27.118Z,71.90
2018-02-09T00:12:54.583Z,71.80
2018-02-09T00:15:22.039Z,71.80
2018-02-09T00:17:50.273Z,71.50
2018-02-09T00:20:18.546Z,71.40
2018-02-09T00:22:52.777Z,71.30
2018-02-09T00:25:20.228Z,71.20
2018-02-09T00:27:47.680Z,71.20
2018-02-09T00:30:15.146Z,70.90
2018-02-09T00:32:42.614Z,70.90
2018-02-09T00:35:10.069Z,71.20
2018-02-09T00:37:37.539Z,71.10
2018-02-09T00:40:05.015Z,90.40
2018-02-09T00:42:32.479Z,88.00
2018-02-09T00:44:59.930Z,84.00
2018-02-09T00:47:27.816Z,70.70
2018-02-09T00:49:55.264Z,71.00
2018-02-09T00:52:23.543Z,70.40
2018-02-09T00:54:51.006Z,71.10
2018-02-09T00:57:18.483Z,71.20
2018-02-09T00:59:46.707Z,71.50
2018-02-09T01:02:14.168Z,71.30
2018-02-09T01:04:41.626Z,71.40
2018-02-09T01:07:09.100Z,71.30
2018-02-09T01:09:36.558Z,71.20
2018-02-09T01:12:04.008Z,71.10
2018-02-09T01:14:32.992Z,71.10
2018-02-09T01:17:00.435Z,71.00
2018-02-09T01:19:27.892Z,70.80
2018-02-09T01:21:55.353Z,70.80
2018-02-09T01:24:22.820Z,70.50
2018-02-09T01:26:50.289Z,71.20
2018-02-09T01:29:17.755Z,71.30
2018-02-09T01:31:45.218Z,71.90
2018-02-09T01:34:13.442Z,71.80
2018-02-09T01:36:40.913Z,71.80
2018-02-09T01:39:08.363Z,71.70
2018-02-09T01:41:35.823Z,71.00
2018-02-09T01:44:03.272Z,71.20
2018-02-09T01:46:30.739Z,80.60
2018-02-09T01:48:58.200Z,71.20
2018-02-09T01:51:25.665Z,71.60
2018-02-09T01:53:53.901Z,71.60
2018-02-09T01:56:21.357Z,73.10
2018-02-09T01:58:48.816Z,72.80
2018-02-09T02:01:16.273Z,72.90
2018-02-09T02:03:43.720Z,72.50
2018-02-09T02:06:11.187Z,72.70
2018-02-09T02:08:38.651Z,72.80
2018-02-09T02:11:06.115Z,72.70
2018-02-09T02:13:33.630Z,72.30
2018-02-09T02:16:01.862Z,72.30
2018-02-09T02:18:29.319Z,72.20
2018-02-09T02:20:56.769Z,72.20
2018-02-09T02:23:24.229Z,72.20
2018-02-09T02:25:51.702Z,72.30
2018-02-09T02:28:19.143Z,72.20
2018-02-09T02:30:46.610Z,72.90
2018-02-09T02:33:14.083Z,72.00
2018-02-09T02:35:41.537Z,71.90
2018-02-09T02:38:08.984Z,71.90
2018-02-09T02:40:36.463Z,71.50
2018-02-09T02:43:03.923Z,71.80
2018-02-09T02:45:32.154Z,72.60
2018-02-09T02:48:00.370Z,71.90
2018-02-09T02:50:28.621Z,72.90
2018-02-09T02:52:56.474Z,72.60
2018-02-09T02:55:23.934Z,79.50
2018-02-09T02:57:51.389Z,73.30
2018-02-09T03:00:18.850Z,73.50
2018-02-09T03:02:46.313Z,73.50
2018-02-09T03:05:13.770Z,73.70
2018-02-09T03:07:41.225Z,73.60
2018-02-09T03:10:08.686Z,73.50
2018-02-09T03:12:36.154Z,73.20
2018-02-09T03:15:03.611Z,73.40
2018-02-09T03:17:31.066Z,73.50
2018-02-09T03:19:58.523Z,73.60
2018-02-09T03:22:26.004Z,73.50
2018-02-09T03:24:54.236Z,73.60
2018-02-09T03:27:21.680Z,73.60
2018-02-09T03:29:49.140Z,73.80
2018-02-09T03:32:16.609Z,74.00
2018-02-09T03:34:44.072Z,73.90
2018-02-09T03:37:11.528Z,73.20
2018-02-09T03:39:38.996Z,72.80
2018-02-09T03:42:06.456Z,72.10
2018-02-09T03:44:33.916Z,71.90
2018-02-09T03:47:01.446Z,71.40
2018-02-09T03:49:28.902Z,93.80
2018-02-09T03:51:56.752Z,70.80
2018-02-09T03:54:24.969Z,70.90
2018-02-09T03:56:52.438Z,90.00
2018-02-09T03:59:20.673Z,71.70
2018-02-09T04:01:48.131Z,71.70
2018-02-09T04:04:15.607Z,72.10
2018-02-09T04:06:43.073Z,71.30
2018-02-09T04:09:10.531Z,71.50
2018-02-09T04:11:38.781Z,71.40
2018-02-09T04:14:06.254Z,71.40
2018-02-09T04:16:33.722Z,71.40
2018-02-09T04:19:01.949Z,71.10
2018-02-09T04:21:29.417Z,71.00
2018-02-09T04:23:56.899Z,71.50
2018-02-09T04:26:24.422Z,71.60
2018-02-09T04:28:51.898Z,71.80
2018-02-09T04:31:19.388Z,71.80
2018-02-09T04:33:46.808Z,71.70
2018-02-09T04:36:14.271Z,71.50
2018-02-09T04:38:41.742Z,71.40
2018-02-09T04:41:09.201Z,71.50
2018-02-09T04:43:36.664Z,71.60
2018-02-09T04:46:04.113Z,74.70
2018-02-09T04:48:31.591Z,79.90
2018-02-09T04:50:59.830Z,71.30
2018-02-09T04:53:27.310Z,70.30
2018-02-09T04:55:54.770Z,70.30
2018-02-09T04:58:23.001Z,71.20
2018-02-09T05:00:50.462Z,71.00
2018-02-09T05:03:17.925Z,71.00
2018-02-09T05:05:45.390Z,71.00
2018-02-09T05:08:12.852Z,71.60
2018-02-09T05:10:40.306Z,71.10
2018-02-09T05:13:07.768Z,71.10
2018-02-09T05:15:35.246Z,71.10
2018-02-09T05:18:03.490Z,71.30
2018-02-09T05:20:30.961Z,71.10
2018-02-09T05:22:58.432Z,71.50
2018-02-09T05:25:25.883Z,71.40
2018-02-09T05:27:53.336Z,70.70
2018-02-09T05:30:20.804Z,71.50
2018-02-09T05:32:49.036Z,71.40
2018-02-09T05:35:16.494Z,71.20
2018-02-09T05:37:43.943Z,71.60
2018-02-09T05:40:11.407Z,71.10
2018-02-09T05:42:38.869Z,71.30
2018-02-09T05:45:06.342Z,71.20
2018-02-09T05:47:33.805Z,70.40
2018-02-09T05:50:01.253Z,70.30
2018-02-09T05:52:28.833Z,95.40
2018-02-09T05:54:56.684Z,70.00
2018-02-09T05:57:24.170Z,69.80
2018-02-09T05:59:52.391Z,69.90
2018-02-09T06:02:19.856Z,70.50
2018-02-09T06:04:47.311Z,71.00
2018-02-09T06:07:14.786Z,71.20
2018-02-09T06:09:42.243Z,71.30
2018-02-09T06:12:09.716Z,71.40
2018-02-09T06:14:37.958Z,71.70
2018-02-09T06:17:05.437Z,71.70
2018-02-09T06:19:32.904Z,71.90
2018-02-09T06:22:01.183Z,72.10
2018-02-09T06:24:29.404Z,73.00
2018-02-09T06:26:57.415Z,72.10
2018-02-09T06:29:24.865Z,72.00
2018-02-09T06:31:52.338Z,72.00
2018-02-09T06:34:20.703Z,71.40
2018-02-09T06:36:48.152Z,71.20
2018-02-09T06:39:15.620Z,71.10
2018-02-09T06:41:43.085Z,71.40
2018-02-09T06:44:11.315Z,71.70
2018-02-09T06:46:38.764Z,71.70
2018-02-09T06:49:06.218Z,71.20
2018-02-09T06:51:33.686Z,69.50
2018-02-09T06:54:01.141Z,69.80
2018-02-09T06:56:28.598Z,69.80
2018-02-09T06:58:56.123Z,70.00
2018-02-09T07:01:23.576Z,86.50
2018-02-09T07:03:51.805Z,70.40
2018-02-09T07:06:19.253Z,71.90
2018-02-09T07:08:46.718Z,71.40
2018-02-09T07:11:14.180Z,71.40
2018-02-09T07:13:41.650Z,71.30
2018-02-09T07:16:09.105Z,71.30
2018-02-09T07:18:36.577Z,70.80
2018-02-09T07:21:04.804Z,70.90
2018-02-09T07:23:33.019Z,70.80
2018-02-09T07:26:00.480Z,70.70
2018-02-09T07:28:27.930Z,70.70
2018-02-09T07:30:55.392Z,71.30
2018-02-09T07:33:22.854Z,70.40
2018-02-09T07:35:50.319Z,71.30
2018-02-09T07:38:18.479Z,71.40
2018-02-09T07:40:45.931Z,70.60
2018-02-09T07:43:14.181Z,70.30
2018-02-09T07:45:41.610Z,70.20
2018-02-09T07:48:09.065Z,69.90
2018-02-09T07:50:36.526Z,70.40
2018-02-09T07:53:03.984Z,92.30
2018-02-09T07:55:31.433Z,69.10
2018-02-09T07:57:58.893Z,68.40
2018-02-09T08:00:26.355Z,72.10
2018-02-09T08:02:54.590Z,68.80
2018-02-09T08:05:22.472Z,68.10
2018-02-09T08:07:50.682Z,68.40
2018-02-09T08:10:18.146Z,68.40
2018-02-09T08:12:45.608Z,68.00
2018-02-09T08:15:13.072Z,68.00
2018-02-09T08:17:40.528Z,68.20
2018-02-09T08:20:08.007Z,68.40
2018-02-09T08:22:35.463Z,68.40
2018-02-09T08:25:02.918Z,68.60
2018-02-09T08:27:30.375Z,68.70
2018-02-09T08:29:57.820Z,68.60
2018-02-09T08:32:25.283Z,68.90
2018-02-09T08:34:52.748Z,68.10
2018-02-09T08:37:20.195Z,67.20
2018-02-09T08:39:48.586Z,66.10
2018-02-09T08:42:16.097Z,66.40
2018-02-09T08:44:43.547Z,66.30
2018-02-09T08:47:11.008Z,66.10
2018-02-09T08:49:38.458Z,65.30
2018-02-09T08:52:05.908Z,65.30
2018-02-09T08:54:33.364Z,68.20
2018-02-09T08:57:00.833Z,61.40
2018-02-09T08:59:28.298Z,61.10
2018-02-09T09:01:55.766Z,61.40
2018-02-09T09:04:23.982Z,61.30
2018-02-09T09:06:52.207Z,60.50
2018-02-09T09:09:19.673Z,60.50
2018-02-09T09:11:47.161Z,60.20
2018-02-09T09:14:15.378Z,59.20
2018-02-09T09:16:42.884Z,59.20
2018-02-09T09:19:10.328Z,59.50
2018-02-09T09:21:37.804Z,60.50
2018-02-09T09:24:05.255Z,59.80
2018-02-09T09:26:32.714Z,59.20
2018-02-09T09:29:00.165Z,59.20
2018-02-09T09:31:27.639Z,59.60
2018-02-09T09:33:55.867Z,59.60
2018-02-09T09:36:23.320Z,59.50
2018-02-09T09:38:50.777Z,59.70
2018-02-09T09:41:19.011Z,59.70
2018-02-09T09:43:46.466Z,59.70
2018-02-09T09:46:13.937Z,59.80
2018-02-09T09:48:41.382Z,60.30
2018-02-09T09:51:08.832Z,60.20
2018-02-09T09:53:37.057Z,59.60
2018-02-09T09:56:04.516Z,71.10
2018-02-09T09:58:31.967Z,72.60
2018-02-09T10:00:59.426Z,58.40
2018-02-09T10:03:26.881Z,58.40
2018-02-09T10:05:54.337Z,91.80
2018-02-09T10:08:21.803Z,70.10
2018-02-09T10:10:49.266Z,58.10
2018-02-09T10:13:16.728Z,58.20
2018-02-09T10:15:44.179Z,58.50
2018-02-09T10:18:11.641Z,58.60
2018-02-09T10:20:39.093Z,58.00
2018-02-09T10:23:06.558Z,57.60
2018-02-09T10:25:34.044Z,57.90
2018-02-09T10:28:02.244Z,57.80
2018-02-09T10:30:29.702Z,57.70
2018-02-09T10:32:57.155Z,57.60
2018-02-09T10:35:24.626Z,57.80
2018-02-09T10:37:52.104Z,57.50
2018-02-09T10:40:19.555Z,57.90
2018-02-09T10:42:47.016Z,57.30
2018-02-09T10:45:14.470Z,57.70
2018-02-09T10:47:41.935Z,57.30
2018-02-09T10:50:09.408Z,58.50
2018-02-09T10:52:36.855Z,58.70
2018-02-09T10:55:04.319Z,68.40
2018-02-09T10:57:31.887Z,57.60
2018-02-09T11:00:00.125Z,58.30
2018-02-09T11:02:27.636Z,58.40
2018-02-09T11:04:55.248Z,58.70
2018-02-09T11:07:23.123Z,58.30
2018-02-09T11:09:51.337Z,57.90
2018-02-09T11:12:21.604Z,58.30
2018-02-09T11:14:49.056Z,58.00
2018-02-09T11:17:16.528Z,58.00
2018-02-09T11:19:43.980Z,58.10
2018-02-09T11:22:11.439Z,58.40
2018-02-09T11:24:38.900Z,58.60
2018-02-09T11:27:06.406Z,58.40
2018-02-09T11:29:33.805Z,58.30
2018-02-09T11:32:01.260Z,58.50
2018-02-09T11:34:28.726Z,58.90
2018-02-09T11:36:56.192Z,58.20
2018-02-09T11:39:23.649Z,57.40
2018-02-09T11:41:51.096Z,57.10
2018-02-09T11:44:18.566Z,58.20
2018-02-09T11:46:46.024Z,57.80
2018-02-09T11:49:13.481Z,57.70
2018-02-09T11:51:40.972Z,56.70
2018-02-09T11:54:08.433Z,57.20
2018-02-09T11:56:35.893Z,75.60
2018-02-09T11:59:03.355Z,56.60
2018-02-09T12:01:30.813Z,86.10
2018-02-09T12:03:58.267Z,56.60
2018-02-09T12:06:25.736Z,68.90
2018-02-09T12:08:53.967Z,57.20
2018-02-09T12:11:21.424Z,57.70
2018-02-09T12:13:49.659Z,57.30
2018-02-09T12:16:17.117Z,57.30
2018-02-09T12:18:44.568Z,57.60
2018-02-09T12:21:12.037Z,58.40
2018-02-09T12:23:39.506Z,57.80
2018-02-09T12:26:06.960Z,57.80
2018-02-09T12:28:34.421Z,57.60
2018-02-09T12:31:01.880Z,57.40
2018-02-09T12:33:29.333Z,57.10
2018-02-09T12:35:56.803Z,57.20
2018-02-09T12:38:24.265Z,56.50
2018-02-09T12:40:52.497Z,56.90
2018-02-09T12:43:19.992Z,56.90
2018-02-09T12:45:47.400Z,57.00
2018-02-09T12:48:14.866Z,57.00
2018-02-09T12:50:42.316Z,57.30
2018-02-09T12:53:09.800Z,56.60
2018-02-09T12:55:37.257Z,56.60
2018-02-09T12:58:04.704Z,83.50
2018-02-09T13:00:32.165Z,58.60
2018-02-09T13:03:00.387Z,57.60
2018-02-09T13:05:27.862Z,56.20
2018-02-09T13:07:55.315Z,72.20
2018-02-09T13:10:23.186Z,58.60
2018-02-09T13:13:02.579Z,57.80
2018-02-09T13:15:30.449Z,56.90
2018-02-09T13:17:57.906Z,57.30
2018-02-09T13:20:26.150Z,57.60
2018-02-09T13:23:05.541Z,57.60
2018-02-09T13:25:33.008Z,57.60
2018-02-09T13:28:00.467Z,57.60
2018-02-09T13:30:27.923Z,57.30
2018-02-09T13:33:07.174Z,57.40
2018-02-09T13:35:34.651Z,57.60
2018-02-09T13:38:02.100Z,57.20
2018-02-09T13:40:29.567Z,57.60
2018-02-09T13:42:57.037Z,57.50
2018-02-09T13:45:24.488Z,57.90
2018-02-09T13:47:52.721Z,57.20
2018-02-09T13:50:20.184Z,56.80
2018-02-09T13:52:48.426Z,57.30
2018-02-09T13:55:17.477Z,58.10
2018-02-09T13:57:45.030Z,58.10
2018-02-09T14:00:12.493Z,58.20
2018-02-09T14:02:39.950Z,57.70
2018-02-09T14:05:07.402Z,57.60
2018-02-09T14:07:34.870Z,57.40
2018-02-09T14:10:02.337Z,57.50
2018-02-09T14:12:30.564Z,57.50
2018-02-09T14:14:58.043Z,57.50
2018-02-09T14:17:25.509Z,57.90
2018-02-09T14:19:52.974Z,58.40
2018-02-09T14:22:20.462Z,57.90
2018-02-09T14:24:48.689Z,57.80
2018-02-09T14:27:16.147Z,57.80
2018-02-09T14:29:43.626Z,57.90
2018-02-09T14:32:11.846Z,58.00
2018-02-09T14:34:39.308Z,58.00
2018-02-09T14:37:06.768Z,58.20
2018-02-09T14:39:34.219Z,58.20
2018-02-09T14:42:01.669Z,58.20
2018-02-09T14:44:29.115Z,57.00
2018-02-09T14:46:56.572Z,57.80
2018-02-09T14:49:24.792Z,58.30
2018-02-09T14:51:52.260Z,57.60
2018-02-09T14:54:20.481Z,57.80
2018-02-09T14:56:47.958Z,58.30
2018-02-09T14:59:15.408Z,58.70
2018-02-09T15:01:42.878Z,59.00
2018-02-09T15:04:10.352Z,59.00
2018-02-09T15:06:37.817Z,58.90
2018-02-09T15:09:05.290Z,58.10
2018-02-09T15:11:32.749Z,58.20
2018-02-09T15:14:00.215Z,58.60
2018-02-09T15:16:27.686Z,58.70
2018-02-09T15:18:55.902Z,58.80
2018-02-09T15:21:23.354Z,58.60
2018-02-09T15:23:50.808Z,58.60
2018-02-09T15:26:18.289Z,58.80
2018-02-09T15:28:45.797Z,58.40
2018-02-09T15:31:13.212Z,58.20
2018-02-09T15:33:40.677Z,58.10
2018-02-09T15:36:08.128Z,58.80
2018-02-09T15:38:35.599Z,58.90
2018-02-09T15:41:03.050Z,59.10
2018-02-09T15:43:30.510Z,59.00
2018-02-09T15:45:57.960Z,72.60
2018-02-09T15:48:25.428Z,58.70
2018-02-09T15:50:52.874Z,58.80
2018-02-09T15:53:20.328Z,88.00
2018-02-09T15:55:48.191Z,59.10
2018-02-09T15:58:16.055Z,59.20
2018-02-09T16:00:43.493Z,59.60
2018-02-09T16:03:10.948Z,59.60
2018-02-09T16:05:38.415Z,59.80
2018-02-09T16:08:05.886Z,60.00
2018-02-09T16:10:33.336Z,63.30
2018-02-09T16:13:00.830Z,61.10
2018-02-09T16:15:29.070Z,60.20
2018-02-09T16:17:56.546Z,60.20
2018-02-09T16:20:24.010Z,60.40
2018-02-09T16:22:52.240Z,60.90
2018-02-09T16:25:19.699Z,60.70
2018-02-09T16:27:47.166Z,60.80
2018-02-09T16:30:14.619Z,61.10
2018-02-09T16:32:42.061Z,61.00
2018-02-09T16:35:09.526Z,61.30
2018-02-09T16:37:36.988Z,61.30
2018-02-09T16:40:04.454Z,61.20
2018-02-09T16:42:32.680Z,61.20
2018-02-09T16:45:00.146Z,59.80
2018-02-09T16:47:27.605Z,92.50
2018-02-09T16:49:55.072Z,59.90
2018-02-09T16:52:23.445Z,59.90
2018-02-09T16:54:51.644Z,59.90
2018-02-09T16:57:19.115Z,81.10
2018-02-09T16:59:46.573Z,74.70
2018-02-09T17:02:14.046Z,61.20
2018-02-09T17:04:42.264Z,60.00
2018-02-09T17:07:09.734Z,60.00
2018-02-09T17:09:37.181Z,60.00
2018-02-09T17:12:04.694Z,60.10
2018-02-09T17:14:32.918Z,59.90
2018-02-09T17:17:00.388Z,59.80
2018-02-09T17:19:27.846Z,59.90
2018-02-09T17:21:55.315Z,60.00
2018-02-09T17:24:22.766Z,60.20
2018-02-09T17:26:50.235Z,60.60
2018-02-09T17:29:17.683Z,60.30
2018-02-09T17:31:45.146Z,60.40
2018-02-09T17:34:12.608Z,60.20
2018-02-09T17:36:40.064Z,60.20
2018-02-09T17:39:07.517Z,60.30
2018-02-09T17:41:34.964Z,60.50
2018-02-09T17:44:02.422Z,61.00
2018-02-09T17:46:29.890Z,60.10
2018-02-09T17:48:57.358Z,76.80
2018-02-09T17:51:24.805Z,59.90
2018-02-09T17:53:52.288Z,66.30
2018-02-09T17:56:20.492Z,60.80
2018-02-09T17:58:48.366Z,60.60
2018-02-09T18:01:16.216Z,60.80
2018-02-09T18:03:43.656Z,61.50
2018-02-09T18:06:11.888Z,61.90
2018-02-09T18:08:39.354Z,61.80
2018-02-09T18:11:06.814Z,62.70
2018-02-09T18:13:34.251Z,62.80
2018-02-09T18:16:01.710Z,62.60
2018-02-09T18:18:29.162Z,62.20
2018-02-09T18:20:56.623Z,62.30
2018-02-09T18:23:24.073Z,61.80
2018-02-09T18:25:51.538Z,62.30
2018-02-09T18:28:19.005Z,62.60
2018-02-09T18:30:46.468Z,62.70
2018-02-09T18:33:14.679Z,62.70
2018-02-09T18:35:42.150Z,62.60
2018-02-09T18:38:09.613Z,62.70
2018-02-09T18:40:37.487Z,61.80
2018-02-09T18:43:04.942Z,61.80
2018-02-09T18:45:32.400Z,62.40
2018-02-09T18:47:59.847Z,62.10
2018-02-09T18:50:27.326Z,62.30
2018-02-09T18:52:54.976Z,62.00
2018-02-09T18:55:22.874Z,61.60
2018-02-09T18:57:50.272Z,61.80
2018-02-09T19:00:17.729Z,62.40
2018-02-09T19:02:45.595Z,61.40
2018-02-09T19:05:13.051Z,62.00
2018-02-09T19:07:40.499Z,62.40
2018-02-09T19:10:08.718Z,62.80
2018-02-09T19:12:36.198Z,62.80
2018-02-09T19:15:03.657Z,62.70
2018-02-09T19:17:31.126Z,62.40
2018-02-09T19:19:59.344Z,62.60
2018-02-09T19:22:27.668Z,61.60
2018-02-09T19:24:55.120Z,61.50
2018-02-09T19:27:22.586Z,61.30
2018-02-09T19:29:50.045Z,61.20
2018-02-09T19:32:17.501Z,61.00
2018-02-09T19:34:45.748Z,61.50
2018-02-09T19:37:13.194Z,61.50
2018-02-09T19:39:40.644Z,61.60
2018-02-09T19:42:08.141Z,61.50
2018-02-09T19:44:35.590Z,61.20
2018-02-09T19:47:03.047Z,61.90
2018-02-09T19:49:30.572Z,62.50
2018-02-09T19:51:58.024Z,61.70
2018-02-09T19:54:25.524Z,61.60
2018-02-09T19:56:52.996Z,90.60
2018-02-09T19:59:21.224Z,62.70
2018-02-09T20:01:49.435Z,62.10
2018-02-09T20:04:16.898Z,62.80
2018-02-09T20:06:45.120Z,63.80
2018-02-09T20:09:12.586Z,63.60
2018-02-09T20:11:40.040Z,62.80
2018-02-09T20:14:07.497Z,63.50
2018-02-09T20:16:34.950Z,63.50
2018-02-09T20:19:02.404Z,63.50
2018-02-09T20:21:29.868Z,63.50
2018-02-09T20:23:57.327Z,63.70
2018-02-09T20:26:24.898Z,63.70
2018-02-09T20:28:52.324Z,63.80
2018-02-09T20:31:20.566Z,63.90
2018-02-09T20:33:48.839Z,63.70
2018-02-09T20:36:16.400Z,63.70
2018-02-09T20:38:43.844Z,63.90
2018-02-09T20:41:11.286Z,64.70
2018-02-09T20:43:38.733Z,64.00
2018-02-09T20:46:06.181Z,63.00
2018-02-09T20:48:33.631Z,63.10
2018-02-09T20:51:01.099Z,63.30
2018-02-09T20:53:28.544Z,75.80
2018-02-09T20:55:56.000Z,63.10
2018-02-09T20:58:24.244Z,63.00
2018-02-09T21:00:52.105Z,63.00
2018-02-09T21:03:19.970Z,63.20
2018-02-09T21:05:48.189Z,63.90
2018-02-09T21:08:15.685Z,63.80
2018-02-09T21:10:43.139Z,63.80
2018-02-09T21:13:10.593Z,63.70
2018-02-09T21:15:38.060Z,63.60
2018-02-09T21:18:05.529Z,64.60
2018-02-09T21:20:32.982Z,63.80
2018-02-09T21:23:01.247Z,63.70
2018-02-09T21:25:28.706Z,63.60
2018-02-09T21:27:56.924Z,63.30
2018-02-09T21:30:24.386Z,63.20
2018-02-09T21:32:51.841Z,63.30
2018-02-09T21:35:19.307Z,62.80
2018-02-09T21:37:47.387Z,63.60
2018-02-09T21:40:14.840Z,63.40
2018-02-09T21:42:42.310Z,63.40
2018-02-09T21:45:09.773Z,62.80
2018-02-09T21:47:37.238Z,76.20
2018-02-09T21:50:04.676Z,62.90
2018-02-09T21:52:32.904Z,63.00
2018-02-09T21:55:01.130Z,63.30
2018-02-09T21:57:28.582Z,85.90
2018-02-09T21:59:56.030Z,63.90
2018-02-09T22:02:23.473Z,64.10
2018-02-09T22:04:50.921Z,64.00
2018-02-09T22:07:18.376Z,65.00
2018-02-09T22:09:45.830Z,64.70
2018-02-09T22:12:13.299Z,65.10
2018-02-09T22:14:40.756Z,64.90
2018-02-09T22:17:08.223Z,65.00
2018-02-09T22:19:35.808Z,64.90
2018-02-09T22:22:03.257Z,65.00
2018-02-09T22:24:30.709Z,65.40
2018-02-09T22:26:58.916Z,65.40
2018-02-09T22:29:27.154Z,65.00
2018-02-09T22:31:54.616Z,65.00
2018-02-09T22:34:22.093Z,64.60
2018-02-09T22:36:49.557Z,64.30
2018-02-09T22:39:17.014Z,64.70
2018-02-09T22:41:45.263Z,65.60
2018-02-09T22:44:12.685Z,65.00
2018-02-09T22:46:40.198Z,65.30
2018-02-09T22:49:07.645Z,66.00
2018-02-09T22:51:35.502Z,66.10
2018-02-09T22:54:02.971Z,65.90
2018-02-09T22:56:30.422Z,66.00
2018-02-09T22:58:57.870Z,66.20
2018-02-09T23:01:25.330Z,66.40
2018-02-09T23:03:52.780Z,66.60
2018-02-09T23:06:20.250Z,66.60
2018-02-09T23:08:47.700Z,66.50
2018-02-09T23:11:15.170Z,66.60
2018-02-09T23:13:42.621Z,66.70
2018-02-09T23:16:10.072Z,66.80
2018-02-09T23:18:37.539Z,66.70
2018-02-09T23:21:05.009Z,66.90
2018-02-09T23:23:33.231Z,67.20
2018-02-09T23:26:00.684Z,67.20
2018-02-09T23:28:28.145Z,67.10
2018-02-09T23:30:55.609Z,67.20
2018-02-09T23:33:23.052Z,66.40
2018-02-09T23:35:50.516Z,67.10
2018-02-09T23:38:17.980Z,80.50
2018-02-09T23:40:45.434Z,84.30
2018-02-09T23:43:13.302Z,66.20
2018-02-09T23:45:41.167Z,66.10
2018-02-09T23:48:09.374Z,65.90
2018-02-09T23:50:36.823Z,65.80
2018-02-09T23:53:04.283Z,66.70
2018-02-09T23:55:31.747Z,66.90
2018-02-09T23:57:59.974Z,67.00
